Terminal Aerodrome Forecast
Issued by NWS Dodge City, KS

Home | Current Version | Previous Version | Graphics & Text | Print | Product List | Glossary Off
Versions: 1 2 3 4 5 6 7 8 9 10 11 12 13 14 15 16 17 18 19 20 21 22 23

000
FTUS43 KDDC 210524
TAFDDC
TAF
KDDC 210524Z 2106/2206 18011G20KT P6SM BKN250 WS020/19040KT
     FM211200 19011KT P6SM FEW250
     FM211500 18018G27KT P6SM FEW250
     FM220100 17012KT P6SM VCTS SCT090 BKN200CB
     FM220400 17012KT P6SM SCT200=

USA.gov is the U.S. government's official web portal to all federal, state and local government web resources and services.